createdAt,value
2023-05-14T00:00:56.573Z,36.16
2023-05-14T00:01:56.654Z,34.45
2023-05-14T00:02:56.791Z,33.11
2023-05-14T00:03:56.856Z,36.88
2023-05-14T00:04:56.761Z,33.28
2023-05-14T00:05:56.811Z,35.95
2023-05-14T00:06:56.881Z,35.81
2023-05-14T00:07:56.921Z,37.35
2023-05-14T00:08:56.983Z,37.11
2023-05-14T00:09:57.053Z,36.38
2023-05-14T00:10:57.114Z,35.09
2023-05-14T00:11:57.188Z,35.25
2023-05-14T00:12:57.211Z,36.10
2023-05-14T00:13:57.270Z,34.15
2023-05-14T00:14:57.334Z,35.46
2023-05-14T00:15:57.409Z,33.92
2023-05-14T00:16:57.435Z,33.24
2023-05-14T00:17:57.534Z,35.33
2023-05-14T00:18:57.588Z,33.39
2023-05-14T00:19:57.889Z,36.29
2023-05-14T00:20:57.646Z,33.88
2023-05-14T00:21:57.733Z,34.80
2023-05-14T00:22:57.762Z,35.54
2023-05-14T00:23:57.817Z,34.36
2023-05-14T00:24:57.869Z,34.05
2023-05-14T00:25:57.898Z,34.69
2023-05-14T00:26:57.954Z,32.80
2023-05-14T00:27:58.035Z,34.72
2023-05-14T00:28:58.059Z,33.55
2023-05-14T00:29:58.114Z,35.00
2023-05-14T00:30:58.182Z,33.13
2023-05-14T00:31:58.211Z,33.43
2023-05-14T00:32:58.315Z,33.58
2023-05-14T00:33:58.289Z,35.03
2023-05-14T00:34:58.444Z,35.70
2023-05-14T00:35:58.392Z,34.23
2023-05-14T00:36:58.461Z,33.28
2023-05-14T00:37:58.505Z,34.67
2023-05-14T00:38:58.556Z,34.56
2023-05-14T00:39:58.614Z,35.45
2023-05-14T00:40:58.656Z,35.66
2023-05-14T00:41:58.705Z,35.14
2023-05-14T00:42:58.749Z,34.50
2023-05-14T00:43:58.815Z,30.51
2023-05-14T00:44:58.857Z,35.15
2023-05-14T00:45:58.902Z,33.62
2023-05-14T00:46:59.065Z,33.45
2023-05-14T00:47:58.991Z,33.14
2023-05-14T00:48:58.996Z,33.70
2023-05-14T00:49:59.029Z,33.49
2023-05-14T00:50:59.084Z,32.01
2023-05-14T00:51:59.190Z,34.14
2023-05-14T00:52:59.188Z,33.40
2023-05-14T00:53:59.276Z,34.91
2023-05-14T00:54:59.329Z,35.41
2023-05-14T00:55:59.355Z,31.33
2023-05-14T00:56:59.410Z,34.27
2023-05-14T00:57:59.468Z,33.56
2023-05-14T00:58:59.521Z,35.29
2023-05-14T00:59:59.549Z,32.98
2023-05-14T01:00:59.637Z,35.33
2023-05-14T01:01:59.665Z,32.77
2023-05-14T01:02:59.775Z,33.95
2023-05-14T01:03:59.893Z,34.62
2023-05-14T01:04:59.799Z,33.28
2023-05-14T01:05:59.846Z,33.13
2023-05-14T01:06:59.919Z,34.68
2023-05-14T01:07:59.975Z,33.74
2023-05-14T01:09:00.010Z,32.29
2023-05-14T01:10:00.070Z,32.53
2023-05-14T01:11:00.132Z,33.64
2023-05-14T01:12:00.213Z,33.76
2023-05-14T01:13:00.214Z,34.26
2023-05-14T01:14:00.308Z,32.99
2023-05-14T01:15:00.323Z,34.13
2023-05-14T01:16:00.396Z,33.53
2023-05-14T01:17:00.435Z,32.38
2023-05-14T01:18:00.544Z,33.90
2023-05-14T01:19:00.595Z,33.17
2023-05-14T01:20:00.662Z,32.77
2023-05-14T01:21:00.681Z,34.76
2023-05-14T01:22:00.709Z,35.53
2023-05-14T01:23:00.742Z,32.91
2023-05-14T01:24:00.850Z,34.27
2023-05-14T01:25:00.854Z,34.26
2023-05-14T01:26:00.884Z,32.98
2023-05-14T01:27:00.938Z,33.53
2023-05-14T01:28:00.988Z,34.34
2023-05-14T01:29:00.987Z,32.73
2023-05-14T01:30:01.030Z,32.22
2023-05-14T01:31:01.061Z,31.93
2023-05-14T01:32:01.172Z,33.59
2023-05-14T01:33:01.202Z,31.56
2023-05-14T01:34:01.237Z,33.38
2023-05-14T01:35:01.404Z,32.53
2023-05-14T01:36:01.349Z,34.04
2023-05-14T01:37:01.408Z,34.11
2023-05-14T01:38:01.458Z,35.75
2023-05-14T01:39:01.505Z,33.78
2023-05-14T01:40:01.598Z,35.16
2023-05-14T01:41:01.605Z,33.15
2023-05-14T01:42:01.661Z,33.83
2023-05-14T01:43:01.740Z,34.50
2023-05-14T01:44:01.768Z,34.61
2023-05-14T01:45:01.849Z,32.78
2023-05-14T01:46:01.856Z,32.49
2023-05-14T01:47:01.890Z,35.95
2023-05-14T01:48:01.954Z,35.25
2023-05-14T01:49:01.937Z,34.70
2023-05-14T01:50:01.977Z,35.27
2023-05-14T01:51:02.015Z,34.71
2023-05-14T01:52:02.022Z,32.03
2023-05-14T01:53:02.096Z,33.09
2023-05-14T01:54:02.098Z,34.51
2023-05-14T01:55:02.143Z,32.71
2023-05-14T01:56:02.195Z,33.99
2023-05-14T01:57:02.252Z,34.07
2023-05-14T01:58:02.306Z,31.67
2023-05-14T01:59:02.374Z,35.71
2023-05-14T02:00:02.422Z,33.69
2023-05-14T02:01:02.512Z,34.73
2023-05-14T02:02:02.609Z,34.89
2023-05-14T02:03:02.641Z,33.83
2023-05-14T02:04:02.679Z,29.83
2023-05-14T02:05:03.490Z,36.19
2023-05-14T02:06:02.754Z,34.36
2023-05-14T02:07:02.819Z,35.96
2023-05-14T02:08:02.875Z,33.17
2023-05-14T02:09:02.899Z,32.85
2023-05-14T02:10:02.939Z,35.82
2023-05-14T02:11:02.984Z,33.78
2023-05-14T02:12:03.006Z,33.43
2023-05-14T02:13:03.061Z,33.62
2023-05-14T02:14:03.079Z,34.28
2023-05-14T02:15:03.124Z,32.49
2023-05-14T02:16:03.246Z,33.14
2023-05-14T02:17:03.205Z,33.00
2023-05-14T02:18:03.349Z,34.94
2023-05-14T02:19:03.347Z,34.43
2023-05-14T02:20:03.294Z,34.67
2023-05-14T02:21:03.355Z,33.95
2023-05-14T02:22:03.386Z,32.58
2023-05-14T02:23:03.422Z,34.33
2023-05-14T02:24:03.480Z,32.53
2023-05-14T02:25:03.487Z,33.52
2023-05-14T02:26:03.539Z,32.71
2023-05-14T02:27:03.569Z,32.76
2023-05-14T02:28:03.623Z,31.89
2023-05-14T02:29:03.674Z,32.18
2023-05-14T02:30:03.690Z,32.31
2023-05-14T02:31:03.766Z,30.88
2023-05-14T02:32:03.761Z,31.08
2023-05-14T02:33:03.981Z,34.20
2023-05-14T02:34:03.798Z,33.22
2023-05-14T02:35:03.852Z,33.55
2023-05-14T02:36:03.902Z,34.82
2023-05-14T02:37:03.920Z,31.43
2023-05-14T02:38:03.963Z,29.37
2023-05-14T02:39:04.000Z,32.14
2023-05-14T02:40:04.074Z,31.77
2023-05-14T02:41:04.094Z,32.50
2023-05-14T02:42:04.138Z,33.70
2023-05-14T02:43:04.173Z,33.39
2023-05-14T02:44:04.223Z,32.21
2023-05-14T02:45:04.268Z,32.02
2023-05-14T02:46:04.308Z,32.55
2023-05-14T02:47:04.383Z,32.41
2023-05-14T02:48:04.375Z,33.33
2023-05-14T02:49:04.358Z,33.51
2023-05-14T02:50:04.384Z,33.74
2023-05-14T02:51:04.386Z,32.99
2023-05-14T02:52:04.405Z,32.86
2023-05-14T02:53:04.420Z,32.58
2023-05-14T02:54:04.424Z,31.34
2023-05-14T02:55:04.444Z,30.39
2023-05-14T02:56:04.462Z,31.87
2023-05-14T02:57:04.462Z,34.59
2023-05-14T02:58:04.472Z,32.92
2023-05-14T02:59:04.469Z,32.90
2023-05-14T03:00:04.476Z,33.51
2023-05-14T03:01:04.496Z,32.54
2023-05-14T03:02:04.505Z,30.65
2023-05-14T03:03:04.491Z,31.62
2023-05-14T03:04:04.492Z,32.55
2023-05-14T03:05:04.498Z,33.34
2023-05-14T03:06:04.502Z,30.94
2023-05-14T03:07:04.513Z,33.53
2023-05-14T03:08:04.510Z,31.99
2023-05-14T03:09:04.525Z,31.69
2023-05-14T03:10:04.552Z,31.64
2023-05-14T03:11:04.589Z,33.54
2023-05-14T03:12:04.581Z,31.97
2023-05-14T03:13:04.606Z,32.91
2023-05-14T03:14:04.608Z,31.18
2023-05-14T03:15:04.630Z,32.11
2023-05-14T03:16:04.636Z,33.19
2023-05-14T03:17:04.759Z,31.98
2023-05-14T03:18:04.720Z,30.24
2023-05-14T03:19:04.730Z,32.00
2023-05-14T03:20:04.676Z,32.23
2023-05-14T03:21:04.720Z,31.17
2023-05-14T03:22:04.703Z,32.13
2023-05-14T03:23:04.708Z,29.63
2023-05-14T03:24:04.705Z,32.58
2023-05-14T03:25:04.716Z,32.07
2023-05-14T03:26:04.776Z,31.03
2023-05-14T03:27:04.754Z,30.49
2023-05-14T03:28:04.787Z,32.72
2023-05-14T03:29:04.793Z,32.47
2023-05-14T03:30:04.813Z,31.97
2023-05-14T03:31:04.953Z,30.75
2023-05-14T03:32:04.856Z,31.94
2023-05-14T03:33:04.922Z,32.88
2023-05-14T03:34:04.873Z,32.02
2023-05-14T03:35:04.873Z,31.86
2023-05-14T03:36:04.954Z,31.51
2023-05-14T03:37:04.904Z,30.28
2023-05-14T03:38:04.924Z,31.56
2023-05-14T03:39:04.907Z,31.94
2023-05-14T03:40:04.905Z,29.57
2023-05-14T03:41:04.901Z,31.78
2023-05-14T03:42:04.912Z,31.05
2023-05-14T03:43:04.949Z,32.97
2023-05-14T03:44:05.003Z,30.96
2023-05-14T03:45:04.995Z,32.14
2023-05-14T03:46:05.059Z,31.27
2023-05-14T03:47:05.002Z,32.09
2023-05-14T03:48:05.109Z,31.22
2023-05-14T03:49:05.097Z,31.70
2023-05-14T03:50:05.113Z,31.92
2023-05-14T03:51:05.084Z,30.73
2023-05-14T03:52:05.103Z,30.26
2023-05-14T03:53:05.091Z,29.16
2023-05-14T03:54:05.094Z,30.91
2023-05-14T03:55:05.101Z,31.85
2023-05-14T03:56:05.090Z,32.28
2023-05-14T03:57:05.108Z,31.05
2023-05-14T03:58:05.097Z,31.24
2023-05-14T03:59:05.096Z,32.02
2023-05-14T04:00:05.090Z,29.36
2023-05-14T04:01:05.099Z,32.29
2023-05-14T04:02:05.097Z,31.19
2023-05-14T04:03:05.138Z,29.71
2023-05-14T04:04:05.251Z,31.25
2023-05-14T04:05:05.120Z,30.06
2023-05-14T04:06:05.084Z,30.42
2023-05-14T04:07:05.090Z,31.78
2023-05-14T04:08:05.066Z,29.61
2023-05-14T04:09:05.080Z,29.30
2023-05-14T04:10:05.114Z,30.38
2023-05-14T04:11:05.132Z,31.37
2023-05-14T04:12:05.123Z,31.65
2023-05-14T04:13:05.125Z,29.86
2023-05-14T04:14:05.136Z,30.18
2023-05-14T04:15:05.137Z,30.17
2023-05-14T04:16:05.123Z,28.70
2023-05-14T04:17:05.132Z,29.16
2023-05-14T04:18:05.165Z,31.07
2023-05-14T04:19:05.173Z,28.23
2023-05-14T04:20:05.121Z,29.95
2023-05-14T04:21:05.119Z,28.87
2023-05-14T04:22:05.110Z,31.04
2023-05-14T04:23:05.148Z,31.83
2023-05-14T04:24:05.092Z,29.23
2023-05-14T04:25:05.078Z,30.08
2023-05-14T04:26:05.109Z,30.43
2023-05-14T04:27:05.073Z,29.78
2023-05-14T04:28:05.066Z,26.81
2023-05-14T04:29:05.062Z,30.16
2023-05-14T04:30:05.053Z,30.61
2023-05-14T04:31:05.062Z,29.51
2023-05-14T04:32:05.174Z,28.65
2023-05-14T04:33:05.073Z,30.12
2023-05-14T04:34:05.040Z,27.99
2023-05-14T04:35:05.026Z,29.57
2023-05-14T04:36:05.033Z,30.26
2023-05-14T04:37:05.031Z,28.58
2023-05-14T04:38:05.045Z,31.10
2023-05-14T04:39:05.014Z,29.02
2023-05-14T04:40:05.017Z,29.76
2023-05-14T04:41:05.019Z,30.41
2023-05-14T04:42:05.049Z,29.97
2023-05-14T04:43:05.007Z,28.84
2023-05-14T04:44:05.006Z,28.85
2023-05-14T04:45:04.997Z,29.44
2023-05-14T04:46:05.027Z,29.16
2023-05-14T04:47:04.992Z,30.05
2023-05-14T04:48:05.045Z,29.83
2023-05-14T04:49:04.981Z,28.82
2023-05-14T04:50:05.011Z,29.53
2023-05-14T04:51:06.935Z,28.84
2023-05-14T04:52:05.000Z,28.60
2023-05-14T04:53:05.002Z,28.52
2023-05-14T04:54:05.065Z,30.00
2023-05-14T04:55:05.031Z,30.15
2023-05-14T04:56:05.017Z,29.63
2023-05-14T04:57:05.016Z,29.82
2023-05-14T04:58:05.021Z,27.83
2023-05-14T04:59:05.133Z,27.47
2023-05-14T05:00:05.025Z,30.72
2023-05-14T05:01:05.196Z,30.54
2023-05-14T05:02:05.046Z,27.19
2023-05-14T05:03:05.097Z,29.52
2023-05-14T05:04:05.083Z,30.58
2023-05-14T05:05:05.067Z,29.02
2023-05-14T05:06:05.081Z,30.39
2023-05-14T05:07:05.083Z,28.86
2023-05-14T05:08:05.076Z,27.90
2023-05-14T05:09:05.085Z,29.51
2023-05-14T05:10:05.056Z,29.37
2023-05-14T05:11:05.058Z,29.69
2023-05-14T05:12:05.070Z,29.74
2023-05-14T05:13:05.047Z,28.64
2023-05-14T05:14:05.071Z,27.65
2023-05-14T05:15:05.034Z,28.18
2023-05-14T05:16:05.089Z,29.56
2023-05-14T05:17:05.036Z,28.13
2023-05-14T05:18:05.088Z,28.97
2023-05-14T05:19:05.067Z,30.37
2023-05-14T05:20:05.057Z,30.02
2023-05-14T05:21:05.089Z,29.35
2023-05-14T05:22:05.082Z,30.94
2023-05-14T05:23:05.041Z,27.91
2023-05-14T05:24:05.051Z,29.08
2023-05-14T05:25:05.039Z,28.33
2023-05-14T05:26:05.048Z,28.89
2023-05-14T05:27:05.037Z,28.95
2023-05-14T05:28:05.040Z,28.39
2023-05-14T05:29:05.039Z,26.86
2023-05-14T05:30:05.021Z,27.76
2023-05-14T05:31:05.050Z,28.46
2023-05-14T05:32:05.020Z,27.68
2023-05-14T05:33:05.062Z,28.07
2023-05-14T05:34:05.005Z,28.07
2023-05-14T05:35:05.002Z,27.37
2023-05-14T05:36:05.013Z,28.49
2023-05-14T05:37:05.001Z,28.35
2023-05-14T05:38:04.982Z,27.76
2023-05-14T05:39:04.964Z,28.30
2023-05-14T05:40:04.978Z,26.60
2023-05-14T05:41:05.093Z,28.11
2023-05-14T05:42:05.003Z,29.48
2023-05-14T05:43:04.969Z,26.89
2023-05-14T05:44:04.942Z,27.88
2023-05-14T05:45:04.934Z,27.06
2023-05-14T05:46:04.977Z,27.93
2023-05-14T05:47:05.011Z,27.95
2023-05-14T05:48:04.966Z,28.03
2023-05-14T05:49:04.928Z,28.48
2023-05-14T05:50:04.955Z,28.53
2023-05-14T05:51:05.049Z,28.77
2023-05-14T05:52:04.921Z,28.78
2023-05-14T05:53:04.931Z,26.41
2023-05-14T05:54:04.944Z,27.32
2023-05-14T05:55:04.930Z,25.81
2023-05-14T05:56:04.939Z,28.97
2023-05-14T05:57:04.898Z,27.48
2023-05-14T05:58:04.901Z,29.03
2023-05-14T05:59:04.898Z,28.63
2023-05-14T06:00:04.897Z,27.31
2023-05-14T06:01:04.916Z,27.49
2023-05-14T06:02:04.910Z,29.70
2023-05-14T06:03:04.919Z,28.09
2023-05-14T06:04:04.882Z,27.45
2023-05-14T06:05:04.891Z,28.55
2023-05-14T06:06:04.895Z,27.39
2023-05-14T06:07:04.857Z,28.40
2023-05-14T06:08:04.848Z,29.17
2023-05-14T06:09:04.844Z,28.85
2023-05-14T06:10:04.846Z,27.32
2023-05-14T06:11:04.880Z,28.09
2023-05-14T06:12:04.843Z,27.78
2023-05-14T06:13:04.847Z,28.21
2023-05-14T06:14:04.834Z,27.14
2023-05-14T06:15:04.829Z,28.50
2023-05-14T06:16:04.890Z,28.18
2023-05-14T06:17:04.817Z,28.59
2023-05-14T06:18:04.875Z,30.14
2023-05-14T06:19:04.885Z,29.81
2023-05-14T06:20:04.803Z,29.94
2023-05-14T06:21:04.823Z,29.87
2023-05-14T06:22:04.818Z,28.53
2023-05-14T06:23:04.793Z,27.54
2023-05-14T06:24:04.784Z,27.92
2023-05-14T06:25:04.797Z,26.86
2023-05-14T06:26:04.778Z,28.35
2023-05-14T06:27:04.765Z,28.82
2023-05-14T06:28:04.765Z,29.62
2023-05-14T06:29:04.760Z,29.96
2023-05-14T06:30:04.757Z,27.32
2023-05-14T06:31:04.764Z,28.64
2023-05-14T06:32:04.833Z,28.83
2023-05-14T06:33:04.804Z,30.29
2023-05-14T06:34:04.752Z,27.89
2023-05-14T06:35:04.754Z,29.10
2023-05-14T06:36:04.752Z,28.54
2023-05-14T06:37:04.743Z,27.05
2023-05-14T06:38:04.741Z,27.17
2023-05-14T06:39:04.740Z,29.96
2023-05-14T06:40:04.740Z,29.91
2023-05-14T06:41:04.752Z,27.79
2023-05-14T06:42:04.765Z,26.76
2023-05-14T06:43:04.721Z,27.80
2023-05-14T06:44:04.723Z,29.42
2023-05-14T06:45:04.717Z,27.94
2023-05-14T06:46:04.751Z,27.94
2023-05-14T06:47:04.720Z,27.54
2023-05-14T06:48:04.806Z,27.98
2023-05-14T06:49:04.783Z,28.77
2023-05-14T06:50:04.701Z,26.43
2023-05-14T06:51:04.695Z,28.16
2023-05-14T06:52:04.713Z,29.49
2023-05-14T06:53:04.684Z,28.80
2023-05-14T06:54:04.697Z,28.92
2023-05-14T06:55:04.675Z,29.59
2023-05-14T06:56:04.679Z,27.80
2023-05-14T06:57:04.666Z,29.00
2023-05-14T06:58:04.665Z,25.15
2023-05-14T06:59:04.664Z,29.46
2023-05-14T07:00:04.672Z,29.98
2023-05-14T07:01:04.683Z,26.30
2023-05-14T07:02:04.689Z,25.90
2023-05-14T07:03:04.698Z,28.49
2023-05-14T07:04:04.736Z,27.88
2023-05-14T07:05:04.672Z,28.39
2023-05-14T07:06:04.692Z,28.94
2023-05-14T07:07:04.709Z,28.46
2023-05-14T07:08:04.718Z,28.96
2023-05-14T07:09:04.762Z,29.90
2023-05-14T07:10:04.756Z,28.82
2023-05-14T07:11:04.766Z,26.75
2023-05-14T07:12:04.771Z,28.85
2023-05-14T07:13:04.828Z,29.01
2023-05-14T07:14:04.799Z,29.93
2023-05-14T07:15:04.831Z,29.07
2023-05-14T07:16:04.842Z,29.64
2023-05-14T07:17:04.890Z,32.70
2023-05-14T07:18:04.863Z,28.51
2023-05-14T07:19:04.921Z,29.26
2023-05-14T07:20:04.870Z,29.48
2023-05-14T07:21:04.878Z,26.98
2023-05-14T07:22:04.909Z,30.61
2023-05-14T07:23:04.908Z,31.20
2023-05-14T07:24:04.923Z,30.34
2023-05-14T07:25:04.951Z,28.99
2023-05-14T07:26:04.960Z,32.39
2023-05-14T07:27:04.978Z,29.62
2023-05-14T07:28:04.989Z,32.00
2023-05-14T07:29:04.986Z,29.95
2023-05-14T07:30:04.989Z,30.50
2023-05-14T07:31:05.074Z,31.08
2023-05-14T07:32:05.027Z,31.73
2023-05-14T07:33:05.085Z,30.56
2023-05-14T07:34:05.069Z,31.95
2023-05-14T07:35:05.097Z,31.90
2023-05-14T07:36:05.106Z,31.49
2023-05-14T07:37:05.121Z,30.86
2023-05-14T07:38:05.123Z,29.32
2023-05-14T07:39:05.288Z,31.03
2023-05-14T07:40:05.248Z,31.87
2023-05-14T07:41:05.209Z,31.54
2023-05-14T07:42:05.223Z,32.06
2023-05-14T07:43:05.232Z,32.96
2023-05-14T07:44:05.257Z,33.09
2023-05-14T07:45:05.301Z,33.72
2023-05-14T07:46:05.316Z,33.17
2023-05-14T07:47:05.377Z,32.98
2023-05-14T07:48:05.469Z,33.63
2023-05-14T07:49:05.402Z,30.28
2023-05-14T07:50:05.445Z,34.64
2023-05-14T07:51:05.474Z,31.81
2023-05-14T07:52:05.566Z,32.41
2023-05-14T07:53:05.561Z,34.35
2023-05-14T07:54:05.617Z,32.97
2023-05-14T07:55:05.672Z,33.42
2023-05-14T07:56:05.709Z,33.30
2023-05-14T07:57:05.772Z,33.14
2023-05-14T07:58:05.822Z,32.78
2023-05-14T07:59:05.882Z,33.98
2023-05-14T08:00:05.939Z,32.90
2023-05-14T08:01:05.990Z,32.21
2023-05-14T08:02:06.112Z,32.53
2023-05-14T08:03:06.274Z,32.77
2023-05-14T08:04:06.229Z,33.46
2023-05-14T08:05:06.211Z,33.07
2023-05-14T08:06:06.268Z,30.99
2023-05-14T08:07:06.340Z,33.79
2023-05-14T08:08:06.371Z,31.49
2023-05-14T08:09:06.425Z,33.56
2023-05-14T08:10:06.510Z,34.02
2023-05-14T08:11:06.588Z,32.11
2023-05-14T08:12:06.619Z,30.08
2023-05-14T08:13:06.725Z,32.00
2023-05-14T08:14:06.738Z,30.64
2023-05-14T08:15:06.800Z,29.85
2023-05-14T08:16:06.867Z,28.09
2023-05-14T08:17:06.962Z,28.42
2023-05-14T08:18:07.025Z,28.85
2023-05-14T08:19:07.073Z,30.18
2023-05-14T08:20:07.171Z,29.85
2023-05-14T08:21:07.193Z,30.29
2023-05-14T08:22:07.262Z,31.66
2023-05-14T08:23:07.302Z,28.43
2023-05-14T08:24:07.385Z,29.22
2023-05-14T08:25:07.422Z,26.34
2023-05-14T08:26:07.487Z,31.38
2023-05-14T08:27:07.557Z,25.47
2023-05-14T08:28:07.612Z,29.87
2023-05-14T08:29:09.274Z,29.61
2023-05-14T08:30:07.694Z,25.98
2023-05-14T08:31:07.715Z,32.36
2023-05-14T08:32:16.048Z,32.71
2023-05-14T08:33:08.721Z,33.07
2023-05-14T08:34:07.638Z,32.82
2023-05-14T08:35:07.616Z,33.20
2023-05-14T08:36:07.626Z,33.10
2023-05-14T08:37:07.628Z,32.09
2023-05-14T08:38:07.612Z,28.73
2023-05-14T08:39:07.725Z,29.31
2023-05-14T08:40:07.589Z,29.48
2023-05-14T08:41:07.638Z,30.61
2023-05-14T08:42:07.725Z,30.21
2023-05-14T08:43:07.741Z,27.40
2023-05-14T08:44:07.792Z,30.08
2023-05-14T08:45:07.850Z,26.76
2023-05-14T08:46:07.894Z,28.91
2023-05-14T08:47:07.946Z,25.42
2023-05-14T08:48:08.051Z,28.57
2023-05-14T08:49:08.155Z,27.78
2023-05-14T08:50:08.131Z,29.59
2023-05-14T08:51:08.164Z,25.38
2023-05-14T08:52:08.226Z,30.91
2023-05-14T08:53:08.265Z,30.98
2023-05-14T08:54:08.323Z,31.58
2023-05-14T08:55:08.369Z,32.69
2023-05-14T08:56:08.424Z,31.90
2023-05-14T08:57:08.470Z,29.52
2023-05-14T08:58:08.505Z,33.20
2023-05-14T08:59:08.561Z,29.58
2023-05-14T09:00:08.658Z,31.77
2023-05-14T09:01:08.678Z,34.98
2023-05-14T09:02:08.740Z,32.36
2023-05-14T09:03:08.791Z,36.88
2023-05-14T09:04:08.858Z,36.37
2023-05-14T09:05:08.842Z,39.10
2023-05-14T09:06:08.899Z,36.17
2023-05-14T09:07:08.942Z,35.65
2023-05-14T09:08:08.979Z,37.49
2023-05-14T09:09:09.033Z,35.87
2023-05-14T09:10:09.081Z,39.11
2023-05-14T09:11:09.114Z,38.03
2023-05-14T09:12:09.169Z,36.70
2023-05-14T09:13:09.195Z,37.40
2023-05-14T09:14:09.250Z,37.29
2023-05-14T09:15:09.315Z,35.51
2023-05-14T09:16:09.366Z,38.87
2023-05-14T09:17:09.368Z,33.92
2023-05-14T09:18:09.453Z,36.42
2023-05-14T09:19:09.494Z,36.32
2023-05-14T09:20:09.496Z,39.09
2023-05-14T09:21:09.545Z,40.21
2023-05-14T09:22:09.589Z,40.01
2023-05-14T09:23:09.630Z,39.54
2023-05-14T09:24:09.673Z,40.35
2023-05-14T09:25:09.738Z,37.19
2023-05-14T09:26:09.754Z,40.20
2023-05-14T09:27:09.790Z,41.37
2023-05-14T09:28:09.821Z,44.19
2023-05-14T09:29:09.869Z,44.02
2023-05-14T09:30:09.936Z,42.74
2023-05-14T09:31:09.960Z,42.94
2023-05-14T09:32:09.988Z,42.33
2023-05-14T09:33:10.066Z,42.85
2023-05-14T09:34:10.068Z,44.70
2023-05-14T09:35:10.099Z,46.38
2023-05-14T09:36:10.145Z,45.68
2023-05-14T09:37:10.243Z,44.61
2023-05-14T09:38:10.229Z,40.66
2023-05-14T09:39:10.256Z,45.36
2023-05-14T09:40:10.291Z,48.11
2023-05-14T09:41:10.335Z,45.25
2023-05-14T09:42:10.399Z,48.16
2023-05-14T09:43:10.407Z,44.08
2023-05-14T09:44:10.450Z,44.70
2023-05-14T09:45:10.558Z,42.11
2023-05-14T09:46:10.525Z,46.78
2023-05-14T09:47:10.613Z,46.08
2023-05-14T09:48:10.865Z,46.58
2023-05-14T09:49:10.653Z,44.38
2023-05-14T09:50:10.691Z,47.91
2023-05-14T09:51:10.723Z,45.50
2023-05-14T09:52:10.778Z,46.33
2023-05-14T09:53:10.826Z,46.56
2023-05-14T09:54:10.895Z,48.58
2023-05-14T09:55:10.900Z,48.81
2023-05-14T09:56:10.934Z,49.17
2023-05-14T09:57:10.971Z,48.61
2023-05-14T09:58:11.005Z,48.51
2023-05-14T09:59:11.056Z,47.62
2023-05-14T10:00:11.113Z,47.01
2023-05-14T10:01:11.228Z,46.07
2023-05-14T10:02:11.183Z,46.69
2023-05-14T10:03:11.240Z,44.72
2023-05-14T10:04:11.351Z,44.88
2023-05-14T10:05:11.281Z,49.37
2023-05-14T10:06:11.321Z,50.03
2023-05-14T10:07:11.355Z,45.12
2023-05-14T10:08:11.379Z,47.62
2023-05-14T10:09:11.424Z,46.53
2023-05-14T10:10:11.460Z,43.88
2023-05-14T10:11:11.507Z,43.92
2023-05-14T10:12:11.545Z,47.63
2023-05-14T10:13:11.583Z,48.12
2023-05-14T10:14:11.613Z,46.89
2023-05-14T10:15:11.636Z,43.15
2023-05-14T10:16:11.693Z,46.12
2023-05-14T10:17:11.897Z,47.84
2023-05-14T10:18:11.811Z,47.46
2023-05-14T10:19:11.946Z,48.73
2023-05-14T10:20:11.842Z,44.11
2023-05-14T10:21:11.871Z,44.19
2023-05-14T10:22:11.921Z,49.40
2023-05-14T10:23:11.951Z,45.22
2023-05-14T10:24:11.993Z,47.56
2023-05-14T10:25:12.028Z,49.13
2023-05-14T10:26:12.061Z,50.45
2023-05-14T10:27:12.102Z,48.97
2023-05-14T10:28:12.124Z,51.56
2023-05-14T10:29:12.179Z,50.75
2023-05-14T10:30:12.202Z,49.25
2023-05-14T10:31:12.296Z,50.86
2023-05-14T10:32:12.295Z,48.20
2023-05-14T10:33:12.445Z,47.90
2023-05-14T10:34:12.354Z,44.03
2023-05-14T10:35:12.390Z,46.86
2023-05-14T10:36:12.436Z,47.42
2023-05-14T10:37:12.476Z,46.08
2023-05-14T10:38:12.502Z,45.59
2023-05-14T10:39:12.548Z,46.33
2023-05-14T10:40:12.590Z,44.25
2023-05-14T10:41:12.616Z,44.33
2023-05-14T10:42:12.671Z,42.65
2023-05-14T10:43:12.708Z,43.35
2023-05-14T10:44:12.746Z,40.93
2023-05-14T10:45:12.773Z,40.74
2023-05-14T10:46:12.833Z,41.32
2023-05-14T10:47:12.859Z,42.20
2023-05-14T10:48:12.928Z,40.81
2023-05-14T10:49:12.936Z,40.28
2023-05-14T10:50:12.982Z,41.97
2023-05-14T10:51:13.234Z,40.30
2023-05-14T10:52:13.043Z,39.02
2023-05-14T10:53:13.096Z,42.88
2023-05-14T10:54:13.106Z,39.69
2023-05-14T10:55:13.205Z,40.24
2023-05-14T10:56:13.192Z,40.82
2023-05-14T10:57:13.248Z,41.21
2023-05-14T10:58:13.275Z,41.23
2023-05-14T10:59:13.309Z,37.45
2023-05-14T11:00:13.350Z,38.15
2023-05-14T11:01:13.432Z,38.13
2023-05-14T11:02:13.462Z,37.64
2023-05-14T11:03:13.666Z,39.60
2023-05-14T11:04:13.651Z,35.78
2023-05-14T11:05:13.573Z,36.11
2023-05-14T11:06:13.599Z,35.21
2023-05-14T11:07:13.628Z,37.15
2023-05-14T11:08:13.711Z,37.10
2023-05-14T11:09:13.722Z,34.90
2023-05-14T11:10:13.752Z,37.35
2023-05-14T11:11:13.834Z,30.65
2023-05-14T11:12:13.851Z,25.84
2023-05-14T11:13:13.885Z,29.23
2023-05-14T11:14:13.919Z,29.35
2023-05-14T11:15:13.975Z,29.80
2023-05-14T11:16:22.842Z,28.86
2023-05-14T11:17:15.053Z,29.01
2023-05-14T11:18:14.044Z,29.13
2023-05-14T11:19:14.186Z,26.32
2023-05-14T11:20:13.980Z,29.42
2023-05-14T11:21:13.978Z,30.48
2023-05-14T11:22:13.975Z,27.82
2023-05-14T11:23:13.968Z,27.94
2023-05-14T11:24:13.961Z,22.73
2023-05-14T11:25:13.968Z,32.48
2023-05-14T11:26:14.036Z,33.46
2023-05-14T11:27:13.955Z,31.04
2023-05-14T11:28:13.983Z,35.65
2023-05-14T11:29:14.016Z,34.44
2023-05-14T11:30:14.087Z,36.40
2023-05-14T11:31:14.125Z,36.50
2023-05-14T11:32:14.147Z,37.33
2023-05-14T11:33:14.248Z,36.66
2023-05-14T11:34:14.235Z,31.39
2023-05-14T11:35:14.347Z,27.92
2023-05-14T11:36:14.330Z,29.45
2023-05-14T11:37:14.416Z,26.25
2023-05-14T11:38:14.437Z,27.13
2023-05-14T11:39:14.498Z,25.15
2023-05-14T11:40:14.527Z,28.23
2023-05-14T11:41:14.575Z,32.10
2023-05-14T11:42:14.684Z,28.01
2023-05-14T11:43:14.675Z,30.70
2023-05-14T11:44:14.709Z,29.90
2023-05-14T11:45:14.754Z,28.39
2023-05-14T11:46:14.819Z,26.44
2023-05-14T11:47:14.857Z,28.61
2023-05-14T11:48:15.221Z,26.30
2023-05-14T11:49:14.930Z,25.31
2023-05-14T11:50:14.971Z,28.89
2023-05-14T11:51:15.037Z,27.07
2023-05-14T11:52:15.091Z,32.70
2023-05-14T11:53:15.108Z,33.39
2023-05-14T11:54:15.160Z,31.93
2023-05-14T11:55:15.203Z,31.82
2023-05-14T11:56:15.275Z,27.23
2023-05-14T11:57:15.298Z,35.30
2023-05-14T11:58:15.352Z,32.03
2023-05-14T11:59:15.391Z,30.31
2023-05-14T12:00:15.474Z,35.19
2023-05-14T12:01:15.487Z,34.13
2023-05-14T12:02:15.576Z,28.55
2023-05-14T12:03:15.717Z,29.95
2023-05-14T12:04:15.663Z,30.14
2023-05-14T12:05:15.683Z,35.10
2023-05-14T12:06:15.723Z,37.82
2023-05-14T12:07:15.774Z,34.60
2023-05-14T12:08:15.844Z,36.18
2023-05-14T12:09:15.889Z,35.25
2023-05-14T12:10:16.004Z,38.29
2023-05-14T12:11:15.983Z,47.11
2023-05-14T12:12:16.040Z,41.52
2023-05-14T12:13:16.092Z,47.21
2023-05-14T12:14:16.152Z,47.97
2023-05-14T12:15:16.187Z,46.30
2023-05-14T12:16:16.294Z,45.62
2023-05-14T12:17:16.295Z,48.90
2023-05-14T12:18:24.017Z,48.86
2023-05-14T12:19:17.379Z,49.04
2023-05-14T12:20:16.335Z,49.39
2023-05-14T12:21:16.313Z,50.96
2023-05-14T12:22:16.322Z,52.09
2023-05-14T12:23:16.359Z,54.18
2023-05-14T12:24:16.313Z,51.55
2023-05-14T12:25:16.323Z,52.81
2023-05-14T12:26:16.288Z,54.86
2023-05-14T12:27:16.294Z,54.02
2023-05-14T12:28:16.330Z,54.02
2023-05-14T12:29:16.361Z,56.19
2023-05-14T12:30:21.883Z,58.70
2023-05-14T12:31:17.479Z,58.85
2023-05-14T12:32:16.408Z,59.18
2023-05-14T12:33:16.428Z,58.93
2023-05-14T12:34:16.392Z,57.81
2023-05-14T12:35:16.367Z,56.49
2023-05-14T12:36:21.783Z,57.81
2023-05-14T12:37:17.369Z,58.10
2023-05-14T12:38:16.350Z,58.43
2023-05-14T12:39:16.355Z,59.91
2023-05-14T12:40:16.373Z,60.03
2023-05-14T12:41:16.324Z,59.33
2023-05-14T12:42:16.336Z,63.26
2023-05-14T12:43:16.321Z,61.69
2023-05-14T12:44:16.314Z,66.27
2023-05-14T12:45:16.298Z,69.02
2023-05-14T12:46:16.364Z,65.32
2023-05-14T12:47:16.470Z,67.28
2023-05-14T12:48:16.462Z,64.26
2023-05-14T12:49:16.507Z,69.61
2023-05-14T12:50:16.587Z,71.21
2023-05-14T12:51:16.603Z,65.53
2023-05-14T12:52:33.051Z,68.65
2023-05-14T12:53:17.674Z,68.85